Time;durP1;ratioP1;P1;durP2;ratioP2;P2;SDS_P1;SDS_P2;PMS_P1;PMS_P2;Temp;Humidity;BMP_temperature;BMP_pressure;BME280_temperature;BME280_humidity;BME280_pressure;Samples;Min_cycle;Max_cycle;Signal;HPM_P1;HPM_P2
2023/08/05 00:00:08;;;;;;;9.33;3.10;;;;;;;;;;5066838;28;20873;-79
2023/08/05 00:02:37;;;;;;;4.90;2.37;;;;;;;;;;5064616;28;20838;-79
2023/08/05 00:05:05;;;;;;;8.20;3.03;;;;;;;;;;5065021;28;20450;-77
2023/08/05 00:07:32;;;;;;;5.10;2.90;;;;;;;;;;5064875;28;20471;-79
2023/08/05 00:10:16;;;;;;;10.27;2.37;;;;;;;;;;5066531;28;20461;-79
2023/08/05 00:12:43;;;;;;;8.43;2.47;;;;;;;;;;5066257;28;20456;-79
2023/08/05 00:15:11;;;;;;;4.73;2.90;;;;;;;;;;5066066;28;20460;-79
2023/08/05 00:17:40;;;;;;;7.87;2.70;;;;;;;;;;5065408;28;20472;-80
2023/08/05 00:20:16;;;;;;;5.87;3.00;;;;;;;;;;5072136;28;20433;-78
2023/08/05 00:22:44;;;;;;;8.63;2.67;;;;;;;;;;5068202;28;20452;-80
2023/08/05 00:25:12;;;;;;;3.47;2.50;;;;;;;;;;5072097;28;20472;-79
2023/08/05 00:27:39;;;;;;;4.90;2.50;;;;;;;;;;5069503;28;20453;-79
2023/08/05 00:30:08;;;;;;;6.83;2.73;;;;;;;;;;5069226;28;20448;-78
2023/08/05 00:32:36;;;;;;;4.37;2.10;;;;;;;;;;5070176;28;20499;-80
2023/08/05 00:35:06;;;;;;;4.97;2.57;;;;;;;;;;5071083;28;20449;-79
2023/08/05 00:37:37;;;;;;;6.03;2.70;;;;;;;;;;5070390;28;20560;-77
2023/08/05 00:40:07;;;;;;;10.67;2.70;;;;;;;;;;5068444;28;20468;-80
2023/08/05 00:42:34;;;;;;;5.70;2.57;;;;;;;;;;5069384;28;20484;-79
2023/08/05 00:45:06;;;;;;;6.73;2.60;;;;;;;;;;5068145;28;20864;-79
2023/08/05 00:47:33;;;;;;;4.93;2.40;;;;;;;;;;5069367;28;20449;-78
2023/08/05 00:50:17;;;;;;;5.17;2.60;;;;;;;;;;5065397;28;20746;-78
2023/08/05 00:52:44;;;;;;;6.47;2.90;;;;;;;;;;5070089;28;20791;-80
2023/08/05 00:55:12;;;;;;;5.27;2.90;;;;;;;;;;5067475;28;20515;-80
2023/08/05 00:57:43;;;;;;;9.27;3.47;;;;;;;;;;5070122;28;20642;-78
2023/08/05 01:00:17;;;;;;;5.20;3.20;;;;;;;;;;5064928;28;20476;-80
2023/08/05 01:02:44;;;;;;;4.07;2.27;;;;;;;;;;5069923;28;20453;-78
2023/08/05 01:05:14;;;;;;;5.80;3.20;;;;;;;;;;5068669;28;20846;-80
2023/08/05 01:07:42;;;;;;;6.47;3.13;;;;;;;;;;5067659;28;20433;-78
2023/08/05 01:10:35;;;;;;;5.87;2.93;;;;;;;;;;5068680;28;20465;-79
2023/08/05 01:13:03;;;;;;;6.10;2.27;;;;;;;;;;5066390;28;20572;-80
2023/08/05 01:15:31;;;;;;;4.20;2.50;;;;;;;;;;5068841;28;20457;-79
2023/08/05 01:17:59;;;;;;;3.93;2.50;;;;;;;;;;5066917;28;20475;-79
2023/08/05 01:20:32;;;;;;;6.83;3.03;;;;;;;;;;5069034;28;20461;-79
2023/08/05 01:23:06;;;;;;;8.27;3.57;;;;;;;;;;5069973;28;20561;-79
2023/08/05 01:25:37;;;;;;;7.60;3.33;;;;;;;;;;5086819;28;20489;-79
2023/08/05 01:28:05;;;;;;;5.40;2.80;;;;;;;;;;5087854;28;20521;-78
2023/08/05 01:30:32;;;;;;;6.00;2.70;;;;;;;;;;5089262;28;20429;-79
2023/08/05 01:33:01;;;;;;;6.43;3.10;;;;;;;;;;5090382;28;20440;-79
2023/08/05 01:35:34;;;;;;;5.60;2.57;;;;;;;;;;5089000;28;20736;-79
2023/08/05 01:38:02;;;;;;;5.70;2.70;;;;;;;;;;5092015;28;20441;-80
2023/08/05 01:40:30;;;;;;;6.47;3.07;;;;;;;;;;5087551;28;20444;-79
2023/08/05 01:42:59;;;;;;;5.30;3.47;;;;;;;;;;5089420;28;20448;-79
2023/08/05 01:45:27;;;;;;;3.97;2.80;;;;;;;;;;5086753;28;20597;-80
2023/08/05 01:47:55;;;;;;;5.00;3.07;;;;;;;;;;5086701;28;20461;-79
2023/08/05 01:50:23;;;;;;;5.73;2.90;;;;;;;;;;5086080;28;20453;-79
2023/08/05 01:52:51;;;;;;;4.57;2.87;;;;;;;;;;5085923;28;20441;-79
2023/08/05 01:55:18;;;;;;;6.47;3.47;;;;;;;;;;5087528;28;20467;-79
2023/08/05 01:57:45;;;;;;;5.53;3.23;;;;;;;;;;5085116;28;20492;-80
2023/08/05 02:00:20;;;;;;;13.37;3.00;;;;;;;;;;5088731;28;20519;-79
2023/08/05 02:02:50;;;;;;;4.60;2.97;;;;;;;;;;5085117;28;20482;-80
2023/08/05 02:05:18;;;;;;;7.00;3.50;;;;;;;;;;5087918;28;20547;-79
2023/08/05 02:07:45;;;;;;;5.90;2.77;;;;;;;;;;5086422;28;20443;-77
2023/08/05 02:10:16;;;;;;;7.40;3.60;;;;;;;;;;5087958;28;20729;-79
2023/08/05 02:12:43;;;;;;;6.20;3.00;;;;;;;;;;5086426;28;20471;-80
2023/08/05 02:15:11;;;;;;;6.53;2.50;;;;;;;;;;5086446;28;20449;-80
2023/08/05 02:17:40;;;;;;;4.63;3.17;;;;;;;;;;5086806;28;20766;-79
2023/08/05 02:20:09;;;;;;;6.07;3.43;;;;;;;;;;5085045;28;20533;-80
2023/08/05 02:22:36;;;;;;;5.97;4.03;;;;;;;;;;5084374;28;20502;-79
2023/08/05 02:25:04;;;;;;;6.63;3.00;;;;;;;;;;5085018;28;20487;-79
2023/08/05 02:27:31;;;;;;;5.23;3.10;;;;;;;;;;5083933;28;20899;-80
2023/08/05 02:30:06;;;;;;;6.63;3.10;;;;;;;;;;5083327;28;20510;-78
2023/08/05 02:32:33;;;;;;;5.33;3.10;;;;;;;;;;5082256;28;20860;-79
2023/08/05 02:35:02;;;;;;;5.30;3.30;;;;;;;;;;5084219;28;20470;-80
2023/08/05 02:37:30;;;;;;;5.50;2.80;;;;;;;;;;5082605;28;20506;-80
2023/08/05 02:39:57;;;;;;;7.07;2.47;;;;;;;;;;5083618;28;20483;-80
2023/08/05 02:42:24;;;;;;;5.50;2.83;;;;;;;;;;5083771;28;20915;-79
2023/08/05 02:44:52;;;;;;;5.87;2.93;;;;;;;;;;5084022;28;20543;-80
2023/08/05 02:47:19;;;;;;;5.90;2.90;;;;;;;;;;5085200;28;20478;-80
2023/08/05 02:49:47;;;;;;;5.53;3.00;;;;;;;;;;5084351;28;20877;-80
2023/08/05 02:52:16;;;;;;;5.40;3.27;;;;;;;;;;5084290;28;20704;-80
2023/08/05 02:54:43;;;;;;;5.40;2.50;;;;;;;;;;5083992;28;20479;-80
2023/08/05 02:57:11;;;;;;;6.10;2.80;;;;;;;;;;5084384;28;20463;-80
2023/08/05 02:59:38;;;;;;;6.27;3.57;;;;;;;;;;5084505;28;20452;-79
2023/08/05 03:02:06;;;;;;;3.50;2.43;;;;;;;;;;5082500;28;20483;-79
2023/08/05 03:04:33;;;;;;;4.57;2.80;;;;;;;;;;5084280;28;20452;-81
2023/08/05 03:07:00;;;;;;;6.67;3.47;;;;;;;;;;5083051;28;20456;-81
2023/08/05 03:09:32;;;;;;;5.90;2.63;;;;;;;;;;5081208;28;20537;-79
2023/08/05 03:12:00;;;;;;;3.57;2.43;;;;;;;;;;5082242;28;20440;-80
2023/08/05 03:14:27;;;;;;;11.20;3.77;;;;;;;;;;5082955;28;20535;-80
2023/08/05 03:16:54;;;;;;;6.67;3.70;;;;;;;;;;5081104;28;20488;-78
2023/08/05 03:19:22;;;;;;;4.40;2.63;;;;;;;;;;5081795;28;20655;-79
2023/08/05 03:21:52;;;;;;;4.80;2.47;;;;;;;;;;5081017;28;20495;-79
2023/08/05 03:24:20;;;;;;;4.73;2.80;;;;;;;;;;5081102;28;20504;-79
2023/08/05 03:26:48;;;;;;;8.83;3.43;;;;;;;;;;5081907;28;20462;-80
2023/08/05 03:29:16;;;;;;;5.77;2.80;;;;;;;;;;5082710;28;20458;-80
2023/08/05 03:31:43;;;;;;;6.20;2.67;;;;;;;;;;5083116;28;20448;-78
2023/08/05 03:34:11;;;;;;;3.93;2.70;;;;;;;;;;5082211;28;20509;-79
2023/08/05 03:36:38;;;;;;;6.67;3.00;;;;;;;;;;5081653;28;20483;-79
2023/08/05 03:39:06;;;;;;;8.23;2.83;;;;;;;;;;5082435;28;20448;-80
2023/08/05 03:41:34;;;;;;;4.37;2.67;;;;;;;;;;5082631;28;20491;-80
2023/08/05 03:44:03;;;;;;;4.93;2.93;;;;;;;;;;5082471;28;20448;-80
2023/08/05 03:46:30;;;;;;;3.83;2.60;;;;;;;;;;5082541;28;20495;-80
2023/08/05 03:48:58;;;;;;;6.63;3.10;;;;;;;;;;5081503;28;20484;-80
2023/08/05 03:51:26;;;;;;;9.60;2.50;;;;;;;;;;5082893;28;20459;-79
2023/08/05 03:53:53;;;;;;;6.40;3.17;;;;;;;;;;5080043;28;20449;-80
2023/08/05 03:56:22;;;;;;;6.70;2.73;;;;;;;;;;5080454;28;20555;-79
2023/08/05 03:58:51;;;;;;;9.23;3.57;;;;;;;;;;5079492;28;20961;-80
2023/08/05 04:01:21;;;;;;;4.67;3.10;;;;;;;;;;5081285;28;20464;-78
2023/08/05 04:03:49;;;;;;;8.70;3.20;;;;;;;;;;5081054;28;20868;-80
2023/08/05 04:06:20;;;;;;;6.30;2.60;;;;;;;;;;5081391;28;20448;-79
2023/08/05 04:08:48;;;;;;;4.47;3.20;;;;;;;;;;5081871;28;20445;-77
2023/08/05 04:11:15;;;;;;;9.00;2.60;;;;;;;;;;5083889;28;20449;-77
2023/08/05 04:13:45;;;;;;;8.00;3.53;;;;;;;;;;5081335;28;20594;-78
2023/08/05 04:16:14;;;;;;;6.47;3.27;;;;;;;;;;5081458;28;20517;-78
2023/08/05 04:18:44;;;;;;;7.53;3.43;;;;;;;;;;5085966;28;20456;-78
2023/08/05 04:21:11;;;;;;;4.70;2.50;;;;;;;;;;5089120;28;20463;-79
2023/08/05 04:23:41;;;;;;;6.90;2.93;;;;;;;;;;5092876;28;20515;-80
2023/08/05 04:26:15;;;;;;;5.60;3.47;;;;;;;;;;5087859;28;20432;-80
2023/08/05 04:28:42;;;;;;;9.63;3.00;;;;;;;;;;5085993;28;20456;-77
2023/08/05 04:31:09;;;;;;;6.50;2.97;;;;;;;;;;5082782;28;20452;-78
2023/08/05 04:33:37;;;;;;;6.50;3.03;;;;;;;;;;5081454;28;20537;-79
2023/08/05 04:36:06;;;;;;;8.87;3.07;;;;;;;;;;5080524;28;20432;-78
2023/08/05 04:38:33;;;;;;;7.17;3.43;;;;;;;;;;5080470;28;20456;-80
2023/08/05 04:41:01;;;;;;;5.53;2.70;;;;;;;;;;5081192;28;20919;-80
2023/08/05 04:43:28;;;;;;;6.00;2.87;;;;;;;;;;5080626;28;20488;-80
2023/08/05 04:45:56;;;;;;;5.53;3.03;;;;;;;;;;5081271;28;20729;-80
2023/08/05 04:48:23;;;;;;;9.70;3.20;;;;;;;;;;5080252;28;20444;-79
2023/08/05 04:50:50;;;;;;;6.47;3.47;;;;;;;;;;5080474;28;20763;-80
2023/08/05 04:53:19;;;;;;;5.03;2.97;;;;;;;;;;5080273;28;20448;-80
2023/08/05 04:55:47;;;;;;;8.20;3.20;;;;;;;;;;5080138;28;20452;-79
2023/08/05 04:58:14;;;;;;;7.57;3.20;;;;;;;;;;5079815;28;20456;-80
2023/08/05 05:00:42;;;;;;;7.63;3.30;;;;;;;;;;5079959;28;20452;-79
2023/08/05 05:03:09;;;;;;;5.07;2.80;;;;;;;;;;5080875;28;20780;-79
2023/08/05 05:05:38;;;;;;;6.47;3.10;;;;;;;;;;5084484;28;20519;-80
2023/08/05 05:08:05;;;;;;;7.77;3.17;;;;;;;;;;5085342;28;20810;-79
2023/08/05 05:10:34;;;;;;;5.83;3.50;;;;;;;;;;5085792;28;20786;-80
2023/08/05 05:13:02;;;;;;;8.60;3.20;;;;;;;;;;5084235;28;20928;-79
2023/08/05 05:15:29;;;;;;;6.60;2.50;;;;;;;;;;5085232;28;20448;-79
2023/08/05 05:17:57;;;;;;;7.50;3.40;;;;;;;;;;5084136;28;20516;-80
2023/08/05 05:20:24;;;;;;;7.33;3.33;;;;;;;;;;5086015;28;20472;-79
2023/08/05 05:22:52;;;;;;;7.43;3.17;;;;;;;;;;5084482;28;20472;-79
2023/08/05 05:25:19;;;;;;;4.17;2.70;;;;;;;;;;5082809;28;20868;-78
2023/08/05 05:27:48;;;;;;;9.40;3.17;;;;;;;;;;5083213;28;20460;-79
2023/08/05 05:30:17;;;;;;;5.70;2.63;;;;;;;;;;5083836;28;20902;-79
2023/08/05 05:32:44;;;;;;;6.80;3.60;;;;;;;;;;5083089;28;20455;-80
2023/08/05 05:35:12;;;;;;;5.03;2.70;;;;;;;;;;5088538;28;20448;-78
2023/08/05 05:37:39;;;;;;;5.60;3.20;;;;;;;;;;5088862;28;20582;-79
2023/08/05 05:40:07;;;;;;;5.83;2.20;;;;;;;;;;5088651;28;20456;-79
2023/08/05 05:42:35;;;;;;;5.80;2.83;;;;;;;;;;5086168;28;20494;-78
2023/08/05 05:45:08;;;;;;;6.70;2.40;;;;;;;;;;5088262;28;20468;-79
2023/08/05 05:47:35;;;;;;;4.27;2.83;;;;;;;;;;5088335;28;20463;-78
2023/08/05 05:50:06;;;;;;;4.40;2.60;;;;;;;;;;5084538;28;20448;-79
2023/08/05 05:52:36;;;;;;;7.00;2.20;;;;;;;;;;5082737;28;20486;-79
2023/08/05 05:55:07;;;;;;;10.23;2.77;;;;;;;;;;5083611;28;20460;-79
2023/08/05 05:57:34;;;;;;;5.70;3.00;;;;;;;;;;5082487;28;20892;-77
2023/08/05 06:00:16;;;;;;;3.77;1.70;;;;;;;;;;5083120;28;20452;-78
2023/08/05 06:02:44;;;;;;;9.97;2.30;;;;;;;;;;5083895;28;20510;-78
2023/08/05 06:05:11;;;;;;;6.03;1.83;;;;;;;;;;5081747;28;20463;-77
2023/08/05 06:07:39;;;;;;;5.17;3.00;;;;;;;;;;5081974;28;20464;-78
2023/08/05 06:10:10;;;;;;;3.67;2.50;;;;;;;;;;5083341;28;20784;-79
2023/08/05 06:12:37;;;;;;;6.87;3.10;;;;;;;;;;5081780;28;20667;-78
2023/08/05 06:15:07;;;;;;;6.30;2.77;;;;;;;;;;5082597;28;20673;-77
2023/08/05 06:17:38;;;;;;;6.10;2.10;;;;;;;;;;5082488;28;20451;-80
2023/08/05 06:20:08;;;;;;;8.13;2.60;;;;;;;;;;5081740;28;20600;-80
2023/08/05 06:22:37;;;;;;;4.77;2.70;;;;;;;;;;5081146;28;20539;-80
2023/08/05 06:25:08;;;;;;;7.10;2.53;;;;;;;;;;5081221;28;20482;-78
2023/08/05 06:27:36;;;;;;;5.53;2.20;;;;;;;;;;5083222;28;20472;-79
2023/08/05 06:30:08;;;;;;;12.70;4.93;;;;;;;;;;5083904;28;20433;-79
2023/08/05 06:32:37;;;;;;;7.00;2.20;;;;;;;;;;5081827;28;20528;-79
2023/08/05 06:35:04;;;;;;;4.33;2.37;;;;;;;;;;5081467;28;20595;-79
2023/08/05 06:37:32;;;;;;;5.37;2.70;;;;;;;;;;5079731;28;20468;-78
2023/08/05 06:40:06;;;;;;;6.90;2.40;;;;;;;;;;5079918;28;20452;-79
2023/08/05 06:42:34;;;;;;;4.73;2.17;;;;;;;;;;5078653;28;20780;-78
2023/08/05 06:45:04;;;;;;;10.90;2.80;;;;;;;;;;5081692;28;20452;-79
2023/08/05 06:47:32;;;;;;;5.50;2.47;;;;;;;;;;5080337;28;20551;-79
2023/08/05 06:50:11;;;;;;;7.37;2.20;;;;;;;;;;5081500;28;20577;-80
2023/08/05 06:52:39;;;;;;;9.13;2.33;;;;;;;;;;5080832;28;20988;-78
2023/08/05 06:55:06;;;;;;;6.00;2.03;;;;;;;;;;5080826;28;20525;-79
2023/08/05 06:57:34;;;;;;;5.00;2.30;;;;;;;;;;5082169;28;20457;-79
2023/08/05 07:00:08;;;;;;;5.53;2.00;;;;;;;;;;5081001;28;20494;-77
2023/08/05 07:02:37;;;;;;;3.60;2.00;;;;;;;;;;5081375;28;20480;-78
2023/08/05 07:05:05;;;;;;;3.80;1.80;;;;;;;;;;5081230;28;20452;-79
2023/08/05 07:07:34;;;;;;;5.97;2.10;;;;;;;;;;5082587;28;20453;-79
2023/08/05 07:10:11;;;;;;;4.87;1.93;;;;;;;;;;5082558;28;20526;-81
2023/08/05 07:12:39;;;;;;;4.40;2.53;;;;;;;;;;5084976;28;20463;-78
2023/08/05 07:15:06;;;;;;;9.03;2.40;;;;;;;;;;5084621;28;20467;-79
2023/08/05 07:17:35;;;;;;;10.23;4.00;;;;;;;;;;5081894;28;20468;-78
2023/08/05 07:20:08;;;;;;;5.17;2.60;;;;;;;;;;5079646;28;20456;-79
2023/08/05 07:22:37;;;;;;;4.80;2.70;;;;;;;;;;5063846;28;20459;-79
2023/08/05 07:25:05;;;;;;;6.30;2.50;;;;;;;;;;5065395;28;20521;-79
2023/08/05 07:27:32;;;;;;;6.20;2.27;;;;;;;;;;5062293;28;20457;-81
2023/08/05 07:30:08;;;;;;;6.63;2.10;;;;;;;;;;5064108;28;20470;-78
2023/08/05 07:32:35;;;;;;;8.77;2.70;;;;;;;;;;5064920;28;20481;-78
2023/08/05 07:35:03;;;;;;;7.67;2.10;;;;;;;;;;5059178;28;21050;-78
2023/08/05 07:37:32;;;;;;;9.67;2.40;;;;;;;;;;5060417;28;20522;-79
2023/08/05 07:40:19;;;;;;;8.57;2.30;;;;;;;;;;5063881;28;20454;-79
2023/08/05 07:42:54;;;;;;;3.97;1.80;;;;;;;;;;5064234;28;20637;-79
2023/08/05 07:45:22;;;;;;;5.40;3.03;;;;;;;;;;5080400;28;20471;-79
2023/08/05 07:47:49;;;;;;;5.63;2.67;;;;;;;;;;5067026;28;20456;-80
2023/08/05 07:50:21;;;;;;;3.20;1.40;;;;;;;;;;5071231;28;20468;-80
2023/08/05 07:52:49;;;;;;;5.17;1.70;;;;;;;;;;5082570;28;20448;-80
2023/08/05 07:55:18;;;;;;;4.07;1.93;;;;;;;;;;5082386;28;20460;-78
2023/08/05 07:57:47;;;;;;;5.80;1.77;;;;;;;;;;5079914;28;20449;-79
2023/08/05 08:00:18;;;;;;;4.50;1.50;;;;;;;;;;5071434;28;20445;-80
2023/08/05 08:02:46;;;;;;;7.10;1.60;;;;;;;;;;5085400;28;20436;-78
2023/08/05 08:05:14;;;;;;;3.60;1.63;;;;;;;;;;5083628;28;20448;-79
2023/08/05 08:07:46;;;;;;;2.93;1.30;;;;;;;;;;5079838;28;20456;-79
2023/08/05 08:10:17;;;;;;;3.57;1.60;;;;;;;;;;5080507;28;20494;-78
2023/08/05 08:12:48;;;;;;;2.43;1.30;;;;;;;;;;5081324;28;20939;-79
2023/08/05 08:15:18;;;;;;;2.53;1.43;;;;;;;;;;5077528;28;20452;-79
2023/08/05 08:17:45;;;;;;;2.67;1.27;;;;;;;;;;5080247;28;20463;-78
2023/08/05 08:20:15;;;;;;;3.83;1.40;;;;;;;;;;5078764;28;20448;-78
2023/08/05 08:22:42;;;;;;;3.90;1.60;;;;;;;;;;5079968;28;20440;-79
2023/08/05 08:25:10;;;;;;;3.33;0.93;;;;;;;;;;5081783;28;20525;-79
2023/08/05 08:27:38;;;;;;;2.30;0.90;;;;;;;;;;5084947;28;20457;-78
2023/08/05 08:30:16;;;;;;;3.87;1.30;;;;;;;;;;5084685;28;20467;-79
2023/08/05 08:32:43;;;;;;;3.20;1.30;;;;;;;;;;5084286;28;20448;-79
2023/08/05 08:35:11;;;;;;;2.70;1.50;;;;;;;;;;5086442;28;20470;-77
2023/08/05 08:37:39;;;;;;;2.50;1.50;;;;;;;;;;5083449;28;21030;-77
2023/08/05 08:40:10;;;;;;;2.50;1.20;;;;;;;;;;5087662;28;20498;-79
2023/08/05 08:42:38;;;;;;;3.43;1.10;;;;;;;;;;5083769;28;20738;-80
2023/08/05 08:45:06;;;;;;;2.13;1.00;;;;;;;;;;5086166;28;20532;-80
2023/08/05 08:47:40;;;;;;;2.43;1.13;;;;;;;;;;5087969;28;20860;-78
2023/08/05 08:50:11;;;;;;;4.07;2.03;;;;;;;;;;5084547;28;20463;-77
2023/08/05 08:52:40;;;;;;;4.80;1.50;;;;;;;;;;5091807;28;20519;-80
2023/08/05 08:55:08;;;;;;;2.20;1.00;;;;;;;;;;5085722;28;20456;-79
2023/08/05 08:57:39;;;;;;;2.07;1.00;;;;;;;;;;5068182;28;20564;-78
2023/08/05 09:00:22;;;;;;;3.63;1.00;;;;;;;;;;5069063;28;20455;-78
2023/08/05 09:03:00;;;;;;;1.87;0.77;;;;;;;;;;5101417;28;20528;-78
2023/08/05 09:05:29;;;;;;;2.50;1.27;;;;;;;;;;5106379;28;20498;-80
2023/08/05 09:07:57;;;;;;;4.23;1.90;;;;;;;;;;5107693;28;20522;-79
2023/08/05 09:10:24;;;;;;;2.27;1.10;;;;;;;;;;5105894;28;20487;-80
2023/08/05 09:12:52;;;;;;;2.97;0.93;;;;;;;;;;5106093;28;20494;-81
2023/08/05 09:15:22;;;;;;;3.47;1.10;;;;;;;;;;5095873;28;20495;-80
2023/08/05 09:17:50;;;;;;;2.50;1.13;;;;;;;;;;5068037;28;20468;-80
2023/08/05 09:20:22;;;;;;;2.80;1.03;;;;;;;;;;5097816;28;20459;-79
2023/08/05 09:22:56;;;;;;;5.20;1.50;;;;;;;;;;5066922;28;20457;-78
2023/08/05 09:25:24;;;;;;;4.13;1.30;;;;;;;;;;5063791;28;20461;-78
2023/08/05 09:27:56;;;;;;;3.40;1.37;;;;;;;;;;5065242;28;20556;-78
2023/08/05 09:30:24;;;;;;;4.10;0.87;;;;;;;;;;5070845;28;20449;-77
2023/08/05 09:32:52;;;;;;;2.70;1.10;;;;;;;;;;5063201;28;20450;-78
2023/08/05 09:35:21;;;;;;;2.80;1.30;;;;;;;;;;5068157;28;20511;-77
2023/08/05 09:37:49;;;;;;;3.80;1.40;;;;;;;;;;5065247;28;20519;-77
2023/08/05 09:40:22;;;;;;;8.43;1.87;;;;;;;;;;5066422;28;20467;-79
2023/08/05 09:42:50;;;;;;;2.73;1.00;;;;;;;;;;5090715;28;20926;-78
2023/08/05 09:45:18;;;;;;;10.13;3.37;;;;;;;;;;5079277;28;20491;-78
2023/08/05 09:47:50;;;;;;;3.20;1.30;;;;;;;;;;5078800;28;20511;-79
2023/08/05 09:50:22;;;;;;;3.37;1.80;;;;;;;;;;5070239;28;20481;-79
2023/08/05 09:52:56;;;;;;;3.20;1.60;;;;;;;;;;5083248;28;20477;-78
2023/08/05 09:55:35;;;;;;;3.17;1.40;;;;;;;;;;5072457;28;20533;-78
2023/08/05 09:58:10;;;;;;;4.50;1.47;;;;;;;;;;5081746;28;21096;-78
2023/08/05 10:00:43;;;;;;;8.13;1.53;;;;;;;;;;5073060;28;20484;-77
2023/08/05 10:03:18;;;;;;;4.63;1.70;;;;;;;;;;5070792;28;20459;-77
2023/08/05 10:05:50;;;;;;;5.63;2.57;;;;;;;;;;5066499;28;20538;-75
2023/08/05 10:08:24;;;;;;;3.30;1.20;;;;;;;;;;5066681;28;20461;-78
2023/08/05 10:10:52;;;;;;;8.60;1.33;;;;;;;;;;5064663;28;20441;-78
2023/08/05 10:13:20;;;;;;;3.10;1.63;;;;;;;;;;5061662;28;20465;-78
2023/08/05 10:15:49;;;;;;;3.80;1.40;;;;;;;;;;5063415;28;20456;-77
2023/08/05 10:18:20;;;;;;;3.20;1.50;;;;;;;;;;5063728;28;20854;-80
2023/08/05 10:20:53;;;;;;;3.50;1.47;;;;;;;;;;5066424;28;20457;-78
2023/08/05 10:23:28;;;;;;;3.40;1.67;;;;;;;;;;5067401;28;20465;-80
2023/08/05 10:25:59;;;;;;;4.67;1.20;;;;;;;;;;5078370;28;20501;-80
2023/08/05 10:28:42;;;;;;;3.93;2.20;;;;;;;;;;5065717;28;20512;-78
2023/08/05 10:31:24;;;;;;;2.97;1.30;;;;;;;;;;5063867;28;20876;-79
2023/08/05 10:34:10;;;;;;;2.53;1.33;;;;;;;;;;5062698;28;20445;-79
2023/08/05 10:36:45;;;;;;;2.77;1.53;;;;;;;;;;5065440;28;20461;-79
2023/08/05 10:39:31;;;;;;;3.60;1.27;;;;;;;;;;5063922;28;20560;-78
2023/08/05 10:42:23;;;;;;;4.83;2.03;;;;;;;;;;5061044;28;20480;-79
2023/08/05 10:44:53;;;;;;;7.30;2.20;;;;;;;;;;5066622;28;20547;-77
2023/08/05 10:47:27;;;;;;;31.17;20.77;;;;;;;;;;5075355;28;20881;-78
2023/08/05 10:50:05;;;;;;;9.80;5.63;;;;;;;;;;5081435;28;20483;-80
2023/08/05 10:52:37;;;;;;;6.40;2.50;;;;;;;;;;5077091;28;20491;-78
2023/08/05 10:55:12;;;;;;;5.03;2.70;;;;;;;;;;5068097;28;20861;-77
2023/08/05 10:57:54;;;;;;;5.97;2.70;;;;;;;;;;5062347;28;20571;-78
2023/08/05 11:00:25;;;;;;;3.80;1.40;;;;;;;;;;5063111;28;20480;-77
2023/08/05 11:03:11;;;;;;;4.00;1.50;;;;;;;;;;5061408;28;20450;-79
2023/08/05 11:05:40;;;;;;;10.20;3.83;;;;;;;;;;5060178;28;20502;-79
2023/08/05 11:08:08;;;;;;;5.23;2.20;;;;;;;;;;5060121;28;20503;-79
2023/08/05 11:10:37;;;;;;;4.20;1.83;;;;;;;;;;5069983;28;20462;-77
2023/08/05 11:13:11;;;;;;;3.80;2.50;;;;;;;;;;5072839;28;20756;-78
2023/08/05 11:15:41;;;;;;;4.57;2.50;;;;;;;;;;5078651;28;20625;-80
2023/08/05 11:18:14;;;;;;;4.10;1.80;;;;;;;;;;5082389;28;20519;-78
2023/08/05 11:20:44;;;;;;;6.50;3.50;;;;;;;;;;5082021;28;20448;-78
2023/08/05 11:23:11;;;;;;;4.93;2.90;;;;;;;;;;5070045;28;20452;-78
2023/08/05 11:25:39;;;;;;;6.80;2.43;;;;;;;;;;5083693;28;20472;-78
2023/08/05 11:28:09;;;;;;;6.90;3.23;;;;;;;;;;5081805;28;20498;-79
2023/08/05 11:30:42;;;;;;;7.03;3.27;;;;;;;;;;5082416;28;20555;-79
2023/08/05 11:33:20;;;;;;;11.33;3.73;;;;;;;;;;5078870;28;20525;-78
2023/08/05 11:35:48;;;;;;;4.70;1.63;;;;;;;;;;5078417;28;20456;-78
2023/08/05 11:38:17;;;;;;;3.47;1.70;;;;;;;;;;5076496;28;20480;-80
2023/08/05 11:40:45;;;;;;;4.20;2.00;;;;;;;;;;5078289;28;20478;-79
2023/08/05 11:43:15;;;;;;;3.40;1.70;;;;;;;;;;5072635;28;20475;-77
2023/08/05 11:45:54;;;;;;;5.03;1.97;;;;;;;;;;5079597;28;20545;-78
2023/08/05 11:48:22;;;;;;;5.90;2.57;;;;;;;;;;5069685;28;20465;-78
2023/08/05 11:50:50;;;;;;;5.10;1.80;;;;;;;;;;5068367;28;20504;-78
2023/08/05 11:53:19;;;;;;;3.17;1.23;;;;;;;;;;5066297;28;20495;-77
2023/08/05 11:55:53;;;;;;;4.90;3.40;;;;;;;;;;5064146;28;20480;-78
2023/08/05 11:58:27;;;;;;;6.50;3.53;;;;;;;;;;5069626;28;20468;-78
2023/08/05 12:01:04;;;;;;;9.17;3.27;;;;;;;;;;5080294;28;20552;-77
2023/08/05 12:03:32;;;;;;;4.20;1.97;;;;;;;;;;5062004;28;20457;-78
2023/08/05 12:06:12;;;;;;;4.10;1.70;;;;;;;;;;5062649;28;20519;-79
2023/08/05 12:08:52;;;;;;;5.77;1.90;;;;;;;;;;5056941;28;20487;-80
2023/08/05 12:11:22;;;;;;;7.73;4.53;;;;;;;;;;5058046;28;20441;-79
2023/08/05 12:13:53;;;;;;;6.47;4.10;;;;;;;;;;5057925;28;20846;-80
2023/08/05 12:42:39;;;;;;;2.90;1.60;;;;;;;;;;5084009;22;20241;-80
2023/08/05 12:45:07;;;;;;;4.77;2.00;;;;;;;;;;5076473;28;20518;-78
2023/08/05 12:47:35;;;;;;;3.13;1.50;;;;;;;;;;5078039;28;20452;-81
2023/08/05 12:50:13;;;;;;;2.57;1.30;;;;;;;;;;5080021;28;20529;-80
2023/08/05 12:52:41;;;;;;;3.17;1.87;;;;;;;;;;5079094;28;20484;-80
2023/08/05 12:55:09;;;;;;;4.97;2.33;;;;;;;;;;5078477;28;20471;-82
2023/08/05 12:57:37;;;;;;;5.80;2.43;;;;;;;;;;5075124;28;20462;-78
2023/08/05 13:00:22;;;;;;;3.43;2.20;;;;;;;;;;5076823;28;20471;-79
2023/08/05 13:02:52;;;;;;;6.43;2.77;;;;;;;;;;5078668;28;20490;-80
2023/08/05 13:05:20;;;;;;;5.10;1.87;;;;;;;;;;5077225;28;20924;-79
2023/08/05 13:07:47;;;;;;;7.30;2.00;;;;;;;;;;5080157;28;20449;-79
2023/08/05 13:10:17;;;;;;;3.60;2.37;;;;;;;;;;5070521;28;20441;-78
2023/08/05 13:12:45;;;;;;;3.70;1.87;;;;;;;;;;5065657;28;20476;-79
2023/08/05 13:15:15;;;;;;;6.40;4.57;;;;;;;;;;5063151;28;20671;-79
2023/08/05 13:17:43;;;;;;;4.80;1.80;;;;;;;;;;5066123;28;20488;-80
2023/08/05 13:20:17;;;;;;;5.00;1.53;;;;;;;;;;5080524;28;20445;-78
2023/08/05 13:22:44;;;;;;;4.40;2.23;;;;;;;;;;5075463;28;20448;-79
2023/08/05 13:25:12;;;;;;;4.50;2.20;;;;;;;;;;5079588;28;20480;-79
2023/08/05 13:27:40;;;;;;;5.53;2.63;;;;;;;;;;5079886;28;20445;-79
2023/08/05 13:30:10;;;;;;;4.80;2.20;;;;;;;;;;5080980;28;20510;-80
2023/08/05 13:32:41;;;;;;;2.73;1.60;;;;;;;;;;5086614;28;20467;-78
2023/08/05 13:35:09;;;;;;;5.30;2.53;;;;;;;;;;5083243;28;20453;-79
2023/08/05 13:37:37;;;;;;;4.87;2.23;;;;;;;;;;5081578;28;20446;-81
2023/08/05 13:40:14;;;;;;;4.40;1.90;;;;;;;;;;5084341;28;20457;-79
2023/08/05 13:42:42;;;;;;;4.10;2.07;;;;;;;;;;5079654;28;20483;-79
2023/08/05 13:45:13;;;;;;;9.23;3.30;;;;;;;;;;5085836;28;20495;-78
2023/08/05 13:47:44;;;;;;;3.97;1.87;;;;;;;;;;5083221;28;20440;-79
2023/08/05 13:50:16;;;;;;;4.00;2.00;;;;;;;;;;5084332;28;20506;-82
2023/08/05 13:52:44;;;;;;;4.17;2.53;;;;;;;;;;5082082;28;20454;-81
2023/08/05 13:55:11;;;;;;;6.80;2.90;;;;;;;;;;5066837;28;20457;-81
2023/08/05 13:57:39;;;;;;;4.40;2.47;;;;;;;;;;5064908;28;20460;-79
2023/08/05 14:00:17;;;;;;;5.07;2.10;;;;;;;;;;5062908;28;20876;-80
2023/08/05 14:02:47;;;;;;;9.57;4.33;;;;;;;;;;5068211;28;20465;-80
2023/08/05 14:05:17;;;;;;;5.07;2.70;;;;;;;;;;5069632;28;20545;-78
2023/08/05 14:07:44;;;;;;;3.90;2.23;;;;;;;;;;5071938;28;20452;-79
2023/08/05 14:10:17;;;;;;;7.87;4.57;;;;;;;;;;5071512;28;20524;-79
2023/08/05 14:12:45;;;;;;;6.00;3.43;;;;;;;;;;5068023;28;20465;-80
2023/08/05 14:15:12;;;;;;;5.63;2.90;;;;;;;;;;5076912;28;20456;-79
2023/08/05 14:17:40;;;;;;;4.43;2.63;;;;;;;;;;5076649;28;20461;-80
2023/08/05 14:20:15;;;;;;;4.10;2.00;;;;;;;;;;5064815;28;20453;-80
2023/08/05 14:22:43;;;;;;;3.80;2.17;;;;;;;;;;5065142;28;20459;-80
2023/08/05 14:25:10;;;;;;;4.80;2.30;;;;;;;;;;5065099;28;20480;-80
2023/08/05 14:27:38;;;;;;;5.60;2.80;;;;;;;;;;5064997;28;20448;-79
2023/08/05 14:30:08;;;;;;;4.20;2.60;;;;;;;;;;5078877;28;20476;-79
2023/08/05 14:32:35;;;;;;;5.10;2.83;;;;;;;;;;5081333;28;20449;-79
2023/08/05 14:35:08;;;;;;;3.33;1.70;;;;;;;;;;5066608;28;20457;-80
2023/08/05 14:37:45;;;;;;;4.10;2.30;;;;;;;;;;5069389;28;20531;-79
2023/08/05 14:40:21;;;;;;;32.77;26.10;;;;;;;;;;5063864;28;20491;-79
2023/08/05 14:42:48;;;;;;;5.00;3.50;;;;;;;;;;5061721;28;20543;-81
2023/08/05 14:45:16;;;;;;;5.10;2.60;;;;;;;;;;5061786;28;20485;-81
2023/08/05 14:47:44;;;;;;;3.97;2.70;;;;;;;;;;5060441;28;20473;-79
2023/08/05 14:50:17;;;;;;;4.40;2.10;;;;;;;;;;5082228;28;20472;-81
2023/08/05 14:52:48;;;;;;;6.43;2.67;;;;;;;;;;5070196;28;20463;-82
2023/08/05 14:55:15;;;;;;;4.20;2.73;;;;;;;;;;5068870;28;20476;-78
2023/08/05 14:57:44;;;;;;;7.10;4.03;;;;;;;;;;5063988;28;20489;-79
2023/08/05 15:00:18;;;;;;;3.00;1.80;;;;;;;;;;5060653;28;20477;-79
2023/08/05 15:02:45;;;;;;;3.80;2.27;;;;;;;;;;5059448;28;20475;-80
2023/08/05 15:05:13;;;;;;;2.83;2.00;;;;;;;;;;5060356;28;20509;-79
2023/08/05 15:07:43;;;;;;;7.43;2.37;;;;;;;;;;5068609;28;20452;-79
2023/08/05 15:10:16;;;;;;;3.20;1.67;;;;;;;;;;5083442;28;20767;-79
2023/08/05 15:12:44;;;;;;;4.47;1.97;;;;;;;;;;5073550;28;20500;-79
2023/08/05 15:15:11;;;;;;;5.53;2.93;;;;;;;;;;5065538;28;21100;-79
2023/08/05 15:17:41;;;;;;;8.50;4.60;;;;;;;;;;5066375;28;20493;-78
2023/08/05 15:20:22;;;;;;;5.53;4.17;;;;;;;;;;5060880;28;20940;-78
2023/08/05 15:22:49;;;;;;;6.30;3.30;;;;;;;;;;5061303;28;20540;-80
2023/08/05 15:25:18;;;;;;;4.03;2.60;;;;;;;;;;5060201;28;20489;-79